sensor_id;sensor_type;location;lat;lon;timestamp;P1;durP1;ratioP1;P2;durP2;ratioP2
66856;SDS011;53766;50.280;19.160;2022-09-20T00:01:20;3.65;;;2.50;;
66856;SDS011;53766;50.280;19.160;2022-09-20T00:03:51;4.22;;;2.33;;
66856;SDS011;53766;50.280;19.160;2022-09-20T00:06:21;4.25;;;2.30;;
66856;SDS011;53766;50.280;19.160;2022-09-20T00:08:51;3.25;;;2.22;;
66856;SDS011;53766;50.280;19.160;2022-09-20T00:11:23;2.92;;;2.33;;
66856;SDS011;53766;50.280;19.160;2022-09-20T00:13:53;3.67;;;2.30;;
66856;SDS011;53766;50.280;19.160;2022-09-20T00:16:23;2.83;;;2.20;;
66856;SDS011;53766;50.280;19.160;2022-09-20T00:18:53;3.15;;;2.30;;
66856;SDS011;53766;50.280;19.160;2022-09-20T00:21:26;3.55;;;2.40;;
66856;SDS011;53766;50.280;19.160;2022-09-20T00:23:55;4.10;;;2.63;;
66856;SDS011;53766;50.280;19.160;2022-09-20T00:26:25;4.15;;;2.60;;
66856;SDS011;53766;50.280;19.160;2022-09-20T00:28:53;3.13;;;2.60;;
66856;SDS011;53766;50.280;19.160;2022-09-20T00:31:21;2.90;;;2.17;;
66856;SDS011;53766;50.280;19.160;2022-09-20T00:33:52;2.97;;;2.30;;
66856;SDS011;53766;50.280;19.160;2022-09-20T00:36:39;3.75;;;2.50;;
66856;SDS011;53766;50.280;19.160;2022-09-20T00:39:08;3.53;;;2.47;;
66856;SDS011;53766;50.280;19.160;2022-09-20T00:41:37;3.33;;;2.30;;
66856;SDS011;53766;50.280;19.160;2022-09-20T00:47:03;3.63;;;2.47;;
66856;SDS011;53766;50.280;19.160;2022-09-20T00:49:32;3.45;;;2.33;;
66856;SDS011;53766;50.280;19.160;2022-09-20T00:52:03;3.50;;;2.25;;
66856;SDS011;53766;50.280;19.160;2022-09-20T00:54:30;3.78;;;2.50;;
66856;SDS011;53766;50.280;19.160;2022-09-20T00:56:59;3.63;;;2.40;;
66856;SDS011;53766;50.280;19.160;2022-09-20T00:59:28;3.53;;;2.40;;
66856;SDS011;53766;50.280;19.160;2022-09-20T01:07:15;4.03;;;2.60;;
66856;SDS011;53766;50.280;19.160;2022-09-20T01:09:45;3.80;;;2.60;;
66856;SDS011;53766;50.280;19.160;2022-09-20T01:12:14;3.47;;;2.67;;
66856;SDS011;53766;50.280;19.160;2022-09-20T01:14:47;3.92;;;2.50;;
66856;SDS011;53766;50.280;19.160;2022-09-20T01:17:18;3.22;;;2.40;;
66856;SDS011;53766;50.280;19.160;2022-09-20T01:30:48;3.70;;;2.50;;
66856;SDS011;53766;50.280;19.160;2022-09-20T01:36:15;4.28;;;2.63;;
66856;SDS011;53766;50.280;19.160;2022-09-20T01:38:53;3.58;;;2.42;;
66856;SDS011;53766;50.280;19.160;2022-09-20T01:41:33;3.20;;;2.08;;
66856;SDS011;53766;50.280;19.160;2022-09-20T01:44:18;3.13;;;2.45;;
66856;SDS011;53766;50.280;19.160;2022-09-20T01:47:02;3.75;;;2.58;;
66856;SDS011;53766;50.280;19.160;2022-09-20T01:55:37;3.30;;;2.28;;
66856;SDS011;53766;50.280;19.160;2022-09-20T02:01:22;3.17;;;2.38;;
66856;SDS011;53766;50.280;19.160;2022-09-20T02:04:09;3.75;;;2.70;;
66856;SDS011;53766;50.280;19.160;2022-09-20T02:21:02;4.07;;;2.45;;
66856;SDS011;53766;50.280;19.160;2022-09-20T02:23:50;3.38;;;2.50;;
66856;SDS011;53766;50.280;19.160;2022-09-20T02:45:47;3.05;;;2.40;;
66856;SDS011;53766;50.280;19.160;2022-09-20T02:48:25;3.28;;;2.15;;
66856;SDS011;53766;50.280;19.160;2022-09-20T02:51:04;3.20;;;2.50;;
66856;SDS011;53766;50.280;19.160;2022-09-20T02:53:50;4.15;;;2.10;;
66856;SDS011;53766;50.280;19.160;2022-09-20T02:56:36;3.05;;;2.20;;
66856;SDS011;53766;50.280;19.160;2022-09-20T03:02:23;3.67;;;2.30;;
66856;SDS011;53766;50.280;19.160;2022-09-20T03:05:08;3.50;;;2.38;;
66856;SDS011;53766;50.280;19.160;2022-09-20T03:08:08;4.03;;;2.20;;
66856;SDS011;53766;50.280;19.160;2022-09-20T03:13:48;3.60;;;2.50;;
66856;SDS011;53766;50.280;19.160;2022-09-20T03:33:46;3.45;;;2.50;;
66856;SDS011;53766;50.280;19.160;2022-09-20T03:44:55;3.83;;;2.33;;
66856;SDS011;53766;50.280;19.160;2022-09-20T04:01:11;3.90;;;2.30;;
66856;SDS011;53766;50.280;19.160;2022-09-20T04:03:55;2.97;;;2.00;;
66856;SDS011;53766;50.280;19.160;2022-09-20T04:06:54;3.85;;;2.35;;
66856;SDS011;53766;50.280;19.160;2022-09-20T04:10:00;3.92;;;2.25;;
66856;SDS011;53766;50.280;19.160;2022-09-20T04:21:11;3.85;;;2.47;;
66856;SDS011;53766;50.280;19.160;2022-09-20T04:24:00;3.38;;;2.10;;
66856;SDS011;53766;50.280;19.160;2022-09-20T04:26:34;3.38;;;2.20;;
66856;SDS011;53766;50.280;19.160;2022-09-20T04:29:30;3.60;;;1.98;;
66856;SDS011;53766;50.280;19.160;2022-09-20T04:37:58;2.78;;;1.98;;
66856;SDS011;53766;50.280;19.160;2022-09-20T04:43:28;2.95;;;1.90;;
66856;SDS011;53766;50.280;19.160;2022-09-20T05:02:51;3.45;;;2.10;;
66856;SDS011;53766;50.280;19.160;2022-09-20T05:05:49;3.00;;;1.90;;
66856;SDS011;53766;50.280;19.160;2022-09-20T05:14:08;3.22;;;2.13;;
66856;SDS011;53766;50.280;19.160;2022-09-20T05:19:24;3.08;;;2.15;;
66856;SDS011;53766;50.280;19.160;2022-09-20T05:27:28;3.13;;;2.13;;
66856;SDS011;53766;50.280;19.160;2022-09-20T05:46:31;2.63;;;2.10;;
66856;SDS011;53766;50.280;19.160;2022-09-20T05:52:22;3.42;;;2.25;;
66856;SDS011;53766;50.280;19.160;2022-09-20T06:00:34;3.03;;;1.80;;
66856;SDS011;53766;50.280;19.160;2022-09-20T06:17:35;2.80;;;2.00;;
66856;SDS011;53766;50.280;19.160;2022-09-20T06:23:16;2.40;;;1.80;;
66856;SDS011;53766;50.280;19.160;2022-09-20T06:25:48;2.47;;;1.90;;
66856;SDS011;53766;50.280;19.160;2022-09-20T06:28:25;2.78;;;2.00;;
66856;SDS011;53766;50.280;19.160;2022-09-20T06:30:57;2.55;;;1.88;;
66856;SDS011;53766;50.280;19.160;2022-09-20T06:33:25;3.50;;;2.30;;
66856;SDS011;53766;50.280;19.160;2022-09-20T06:36:01;3.45;;;1.90;;
66856;SDS011;53766;50.280;19.160;2022-09-20T06:41:46;3.65;;;2.00;;
66856;SDS011;53766;50.280;19.160;2022-09-20T06:44:14;3.45;;;2.08;;
66856;SDS011;53766;50.280;19.160;2022-09-20T06:46:41;2.38;;;1.92;;
66856;SDS011;53766;50.280;19.160;2022-09-20T06:49:08;2.75;;;1.95;;
66856;SDS011;53766;50.280;19.160;2022-09-20T06:51:37;2.95;;;2.08;;
66856;SDS011;53766;50.280;19.160;2022-09-20T06:54:05;2.28;;;1.80;;
66856;SDS011;53766;50.280;19.160;2022-09-20T06:56:37;3.35;;;2.15;;
66856;SDS011;53766;50.280;19.160;2022-09-20T06:59:05;2.53;;;1.70;;
66856;SDS011;53766;50.280;19.160;2022-09-20T07:01:34;3.55;;;2.15;;
66856;SDS011;53766;50.280;19.160;2022-09-20T07:04:03;2.97;;;1.90;;
66856;SDS011;53766;50.280;19.160;2022-09-20T07:06:32;2.50;;;1.70;;
66856;SDS011;53766;50.280;19.160;2022-09-20T07:09:00;2.88;;;2.08;;
66856;SDS011;53766;50.280;19.160;2022-09-20T07:11:28;2.78;;;1.85;;
66856;SDS011;53766;50.280;19.160;2022-09-20T07:13:56;2.47;;;1.90;;
66856;SDS011;53766;50.280;19.160;2022-09-20T07:16:27;2.50;;;1.85;;
66856;SDS011;53766;50.280;19.160;2022-09-20T07:18:54;2.70;;;1.90;;
66856;SDS011;53766;50.280;19.160;2022-09-20T07:21:23;2.50;;;1.80;;
66856;SDS011;53766;50.280;19.160;2022-09-20T07:23:50;2.42;;;1.80;;
66856;SDS011;53766;50.280;19.160;2022-09-20T07:26:21;3.17;;;2.17;;
66856;SDS011;53766;50.280;19.160;2022-09-20T07:28:51;2.83;;;1.90;;
66856;SDS011;53766;50.280;19.160;2022-09-20T07:31:20;2.65;;;1.90;;
66856;SDS011;53766;50.280;19.160;2022-09-20T07:33:49;4.00;;;2.08;;
66856;SDS011;53766;50.280;19.160;2022-09-20T07:36:17;2.17;;;1.63;;
66856;SDS011;53766;50.280;19.160;2022-09-20T07:38:48;2.85;;;1.77;;
66856;SDS011;53766;50.280;19.160;2022-09-20T07:41:17;3.22;;;1.90;;
66856;SDS011;53766;50.280;19.160;2022-09-20T07:43:46;2.92;;;1.90;;
66856;SDS011;53766;50.280;19.160;2022-09-20T07:46:14;3.05;;;1.88;;
66856;SDS011;53766;50.280;19.160;2022-09-20T07:48:41;2.40;;;1.80;;
66856;SDS011;53766;50.280;19.160;2022-09-20T07:51:10;3.03;;;2.10;;
66856;SDS011;53766;50.280;19.160;2022-09-20T07:53:39;2.38;;;1.80;;
66856;SDS011;53766;50.280;19.160;2022-09-20T07:56:12;2.85;;;2.00;;
66856;SDS011;53766;50.280;19.160;2022-09-20T07:58:41;2.70;;;1.88;;
66856;SDS011;53766;50.280;19.160;2022-09-20T08:01:18;3.80;;;1.80;;
66856;SDS011;53766;50.280;19.160;2022-09-20T08:03:47;2.70;;;2.10;;
66856;SDS011;53766;50.280;19.160;2022-09-20T08:06:14;3.00;;;1.73;;
66856;SDS011;53766;50.280;19.160;2022-09-20T08:08:42;2.05;;;1.65;;
66856;SDS011;53766;50.280;19.160;2022-09-20T08:11:11;2.63;;;1.85;;
66856;SDS011;53766;50.280;19.160;2022-09-20T08:13:46;3.17;;;1.90;;
66856;SDS011;53766;50.280;19.160;2022-09-20T08:16:36;2.75;;;1.90;;
66856;SDS011;53766;50.280;19.160;2022-09-20T08:19:06;3.20;;;1.92;;
66856;SDS011;53766;50.280;19.160;2022-09-20T08:21:34;3.05;;;1.90;;
66856;SDS011;53766;50.280;19.160;2022-09-20T08:24:03;2.72;;;1.98;;
66856;SDS011;53766;50.280;19.160;2022-09-20T08:26:31;2.30;;;1.83;;
66856;SDS011;53766;50.280;19.160;2022-09-20T08:29:01;2.58;;;1.85;;
66856;SDS011;53766;50.280;19.160;2022-09-20T08:31:31;2.35;;;1.80;;
66856;SDS011;53766;50.280;19.160;2022-09-20T08:34:04;2.88;;;1.60;;
66856;SDS011;53766;50.280;19.160;2022-09-20T08:36:33;2.90;;;1.90;;
66856;SDS011;53766;50.280;19.160;2022-09-20T08:39:04;1.80;;;1.50;;
66856;SDS011;53766;50.280;19.160;2022-09-20T08:41:53;2.05;;;1.65;;
66856;SDS011;53766;50.280;19.160;2022-09-20T08:44:29;2.97;;;2.00;;
66856;SDS011;53766;50.280;19.160;2022-09-20T08:47:23;2.30;;;1.65;;
66856;SDS011;53766;50.280;19.160;2022-09-20T08:49:53;2.83;;;1.88;;
66856;SDS011;53766;50.280;19.160;2022-09-20T08:52:27;3.72;;;1.70;;
66856;SDS011;53766;50.280;19.160;2022-09-20T08:55:12;2.58;;;1.70;;
66856;SDS011;53766;50.280;19.160;2022-09-20T08:57:43;2.70;;;1.80;;
66856;SDS011;53766;50.280;19.160;2022-09-20T09:00:16;2.45;;;1.73;;
66856;SDS011;53766;50.280;19.160;2022-09-20T09:02:46;2.40;;;1.60;;
66856;SDS011;53766;50.280;19.160;2022-09-20T09:05:34;2.60;;;1.75;;
66856;SDS011;53766;50.280;19.160;2022-09-20T09:08:14;3.58;;;1.70;;
66856;SDS011;53766;50.280;19.160;2022-09-20T09:10:50;2.60;;;1.75;;
66856;SDS011;53766;50.280;19.160;2022-09-20T09:13:23;2.30;;;1.80;;
66856;SDS011;53766;50.280;19.160;2022-09-20T09:16:16;1.83;;;1.52;;
66856;SDS011;53766;50.280;19.160;2022-09-20T09:18:54;2.08;;;1.58;;
66856;SDS011;53766;50.280;19.160;2022-09-20T09:21:24;2.53;;;1.73;;
66856;SDS011;53766;50.280;19.160;2022-09-20T09:24:06;2.78;;;1.70;;
66856;SDS011;53766;50.280;19.160;2022-09-20T09:26:40;4.13;;;1.92;;
66856;SDS011;53766;50.280;19.160;2022-09-20T09:29:19;1.88;;;1.60;;
66856;SDS011;53766;50.280;19.160;2022-09-20T09:31:51;2.30;;;1.70;;
66856;SDS011;53766;50.280;19.160;2022-09-20T09:34:27;2.60;;;1.70;;
66856;SDS011;53766;50.280;19.160;2022-09-20T09:36:55;2.00;;;1.60;;
66856;SDS011;53766;50.280;19.160;2022-09-20T09:39:28;2.78;;;1.83;;
66856;SDS011;53766;50.280;19.160;2022-09-20T09:45:12;2.72;;;1.90;;
66856;SDS011;53766;50.280;19.160;2022-09-20T09:47:55;2.60;;;1.90;;
66856;SDS011;53766;50.280;19.160;2022-09-20T09:50:28;2.97;;;1.77;;
66856;SDS011;53766;50.280;19.160;2022-09-20T09:53:14;2.63;;;1.90;;
66856;SDS011;53766;50.280;19.160;2022-09-20T10:01:36;3.63;;;1.75;;
66856;SDS011;53766;50.280;19.160;2022-09-20T10:04:31;2.53;;;1.83;;
66856;SDS011;53766;50.280;19.160;2022-09-20T10:07:02;2.50;;;1.60;;
66856;SDS011;53766;50.280;19.160;2022-09-20T10:09:52;2.28;;;1.75;;
66856;SDS011;53766;50.280;19.160;2022-09-20T10:29:04;2.55;;;1.70;;
66856;SDS011;53766;50.280;19.160;2022-09-20T10:36:57;2.10;;;1.50;;
66856;SDS011;53766;50.280;19.160;2022-09-20T10:39:35;2.38;;;1.60;;
66856;SDS011;53766;50.280;19.160;2022-09-20T10:45:11;2.10;;;1.40;;
66856;SDS011;53766;50.280;19.160;2022-09-20T10:48:03;2.10;;;1.42;;
66856;SDS011;53766;50.280;19.160;2022-09-20T10:51:10;2.92;;;1.70;;
66856;SDS011;53766;50.280;19.160;2022-09-20T10:54:18;2.58;;;1.65;;
66856;SDS011;53766;50.280;19.160;2022-09-20T10:57:16;2.53;;;1.70;;
66856;SDS011;53766;50.280;19.160;2022-09-20T11:02:37;2.28;;;1.40;;
66856;SDS011;53766;50.280;19.160;2022-09-20T11:05:28;3.28;;;1.65;;
66856;SDS011;53766;50.280;19.160;2022-09-20T11:08:11;2.70;;;1.75;;
66856;SDS011;53766;50.280;19.160;2022-09-20T11:15:59;2.30;;;1.67;;
66856;SDS011;53766;50.280;19.160;2022-09-20T11:18:49;1.90;;;1.60;;
66856;SDS011;53766;50.280;19.160;2022-09-20T11:21:24;1.70;;;1.40;;
66856;SDS011;53766;50.280;19.160;2022-09-20T11:26:34;2.03;;;1.58;;
66856;SDS011;53766;50.280;19.160;2022-09-20T11:32:01;3.00;;;1.80;;
66856;SDS011;53766;50.280;19.160;2022-09-20T11:37:59;2.22;;;1.58;;
66856;SDS011;53766;50.280;19.160;2022-09-20T11:40:37;2.95;;;1.70;;
66856;SDS011;53766;50.280;19.160;2022-09-20T11:43:27;1.90;;;1.48;;
66856;SDS011;53766;50.280;19.160;2022-09-20T11:45:57;2.50;;;1.60;;
66856;SDS011;53766;50.280;19.160;2022-09-20T11:48:31;2.17;;;1.35;;
66856;SDS011;53766;50.280;19.160;2022-09-20T11:57:37;2.25;;;1.52;;
66856;SDS011;53766;50.280;19.160;2022-09-20T12:00:06;1.80;;;1.40;;
66856;SDS011;53766;50.280;19.160;2022-09-20T12:02:39;2.35;;;1.63;;
66856;SDS011;53766;50.280;19.160;2022-09-20T12:05:23;1.83;;;1.50;;
66856;SDS011;53766;50.280;19.160;2022-09-20T12:07:59;2.10;;;1.60;;
66856;SDS011;53766;50.280;19.160;2022-09-20T12:10:30;1.88;;;1.40;;
66856;SDS011;53766;50.280;19.160;2022-09-20T12:13:06;1.80;;;1.50;;
66856;SDS011;53766;50.280;19.160;2022-09-20T12:15:45;2.05;;;1.52;;
66856;SDS011;53766;50.280;19.160;2022-09-20T12:18:26;1.98;;;1.60;;
66856;SDS011;53766;50.280;19.160;2022-09-20T12:21:17;2.35;;;1.60;;
66856;SDS011;53766;50.280;19.160;2022-09-20T12:28:55;1.90;;;1.38;;
66856;SDS011;53766;50.280;19.160;2022-09-20T12:33:59;1.73;;;1.48;;
66856;SDS011;53766;50.280;19.160;2022-09-20T12:36:43;2.05;;;1.45;;
66856;SDS011;53766;50.280;19.160;2022-09-20T12:39:37;2.28;;;1.45;;
66856;SDS011;53766;50.280;19.160;2022-09-20T13:03:30;1.42;;;1.20;;
66856;SDS011;53766;50.280;19.160;2022-09-20T13:14:21;2.38;;;1.33;;
66856;SDS011;53766;50.280;19.160;2022-09-20T13:16:53;1.88;;;1.45;;
66856;SDS011;53766;50.280;19.160;2022-09-20T13:19:27;1.95;;;1.40;;
66856;SDS011;53766;50.280;19.160;2022-09-20T13:24:35;2.20;;;1.27;;
66856;SDS011;53766;50.280;19.160;2022-09-20T13:27:06;4.20;;;1.40;;
66856;SDS011;53766;50.280;19.160;2022-09-20T13:29:39;1.67;;;1.40;;
66856;SDS011;53766;50.280;19.160;2022-09-20T13:32:26;2.03;;;1.35;;
66856;SDS011;53766;50.280;19.160;2022-09-20T13:35:14;2.17;;;1.58;;
66856;SDS011;53766;50.280;19.160;2022-09-20T13:40:29;1.60;;;1.30;;
66856;SDS011;53766;50.280;19.160;2022-09-20T13:43:02;1.45;;;1.10;;
66856;SDS011;53766;50.280;19.160;2022-09-20T13:45:56;1.95;;;1.33;;
66856;SDS011;53766;50.280;19.160;2022-09-20T13:48:26;1.63;;;1.25;;
66856;SDS011;53766;50.280;19.160;2022-09-20T13:50:55;1.80;;;1.20;;
66856;SDS011;53766;50.280;19.160;2022-09-20T13:53:24;2.03;;;1.55;;
66856;SDS011;53766;50.280;19.160;2022-09-20T13:56:09;1.55;;;1.25;;
66856;SDS011;53766;50.280;19.160;2022-09-20T13:58:42;2.22;;;1.27;;
66856;SDS011;53766;50.280;19.160;2022-09-20T14:01:29;2.33;;;1.50;;
66856;SDS011;53766;50.280;19.160;2022-09-20T14:04:12;2.20;;;1.30;;
66856;SDS011;53766;50.280;19.160;2022-09-20T14:06:42;2.25;;;1.45;;
66856;SDS011;53766;50.280;19.160;2022-09-20T14:09:29;1.73;;;1.30;;
66856;SDS011;53766;50.280;19.160;2022-09-20T14:12:01;1.98;;;1.30;;
66856;SDS011;53766;50.280;19.160;2022-09-20T14:14:30;2.08;;;1.42;;
66856;SDS011;53766;50.280;19.160;2022-09-20T14:17:00;1.67;;;1.30;;
66856;SDS011;53766;50.280;19.160;2022-09-20T14:19:33;1.67;;;1.20;;
66856;SDS011;53766;50.280;19.160;2022-09-20T14:22:06;1.77;;;1.20;;
66856;SDS011;53766;50.280;19.160;2022-09-20T14:24:39;2.13;;;1.33;;
66856;SDS011;53766;50.280;19.160;2022-09-20T14:27:15;1.90;;;1.25;;
66856;SDS011;53766;50.280;19.160;2022-09-20T14:29:45;1.38;;;1.10;;
66856;SDS011;53766;50.280;19.160;2022-09-20T14:37:54;1.98;;;1.50;;
66856;SDS011;53766;50.280;19.160;2022-09-20T14:43:05;1.63;;;1.30;;
66856;SDS011;53766;50.280;19.160;2022-09-20T14:45:36;1.48;;;1.30;;
66856;SDS011;53766;50.280;19.160;2022-09-20T14:55:35;1.92;;;1.27;;
66856;SDS011;53766;50.280;19.160;2022-09-20T14:58:11;1.70;;;1.13;;
66856;SDS011;53766;50.280;19.160;2022-09-20T15:03:23;1.30;;;0.90;;
66856;SDS011;53766;50.280;19.160;2022-09-20T15:05:53;1.67;;;1.10;;
66856;SDS011;53766;50.280;19.160;2022-09-20T15:08:21;1.92;;;1.15;;
66856;SDS011;53766;50.280;19.160;2022-09-20T15:10:49;1.63;;;1.30;;
66856;SDS011;53766;50.280;19.160;2022-09-20T15:13:17;1.80;;;1.30;;
66856;SDS011;53766;50.280;19.160;2022-09-20T15:15:48;1.40;;;1.08;;
66856;SDS011;53766;50.280;19.160;2022-09-20T15:18:30;1.33;;;0.95;;
66856;SDS011;53766;50.280;19.160;2022-09-20T15:21:01;1.40;;;1.08;;
66856;SDS011;53766;50.280;19.160;2022-09-20T15:23:28;1.58;;;1.30;;
66856;SDS011;53766;50.280;19.160;2022-09-20T15:25:56;1.42;;;1.00;;
66856;SDS011;53766;50.280;19.160;2022-09-20T15:28:25;1.60;;;1.00;;
66856;SDS011;53766;50.280;19.160;2022-09-20T15:30:53;1.83;;;1.20;;
66856;SDS011;53766;50.280;19.160;2022-09-20T15:33:21;1.35;;;1.20;;
66856;SDS011;53766;50.280;19.160;2022-09-20T15:35:48;1.35;;;1.02;;
66856;SDS011;53766;50.280;19.160;2022-09-20T15:38:17;1.25;;;0.95;;
66856;SDS011;53766;50.280;19.160;2022-09-20T15:40:46;1.88;;;1.10;;
66856;SDS011;53766;50.280;19.160;2022-09-20T15:43:16;1.77;;;1.20;;
66856;SDS011;53766;50.280;19.160;2022-09-20T15:45:55;0.98;;;0.88;;
66856;SDS011;53766;50.280;19.160;2022-09-20T15:48:27;1.63;;;1.17;;
66856;SDS011;53766;50.280;19.160;2022-09-20T15:53:28;1.23;;;1.00;;
66856;SDS011;53766;50.280;19.160;2022-09-20T15:55:58;1.48;;;1.10;;
66856;SDS011;53766;50.280;19.160;2022-09-20T15:58:28;1.58;;;1.10;;
66856;SDS011;53766;50.280;19.160;2022-09-20T16:01:03;1.40;;;1.10;;
66856;SDS011;53766;50.280;19.160;2022-09-20T16:03:32;1.58;;;1.02;;
66856;SDS011;53766;50.280;19.160;2022-09-20T16:06:02;1.40;;;1.00;;
66856;SDS011;53766;50.280;19.160;2022-09-20T16:08:31;1.42;;;1.10;;
66856;SDS011;53766;50.280;19.160;2022-09-20T16:11:01;1.20;;;0.90;;
66856;SDS011;53766;50.280;19.160;2022-09-20T16:13:30;1.30;;;0.95;;
66856;SDS011;53766;50.280;19.160;2022-09-20T16:15:59;1.20;;;1.10;;
66856;SDS011;53766;50.280;19.160;2022-09-20T16:18:27;2.30;;;0.85;;
66856;SDS011;53766;50.280;19.160;2022-09-20T16:21:14;1.40;;;1.00;;
66856;SDS011;53766;50.280;19.160;2022-09-20T16:23:50;1.67;;;1.00;;
66856;SDS011;53766;50.280;19.160;2022-09-20T16:26:20;1.50;;;1.08;;
66856;SDS011;53766;50.280;19.160;2022-09-20T16:28:50;0.88;;;0.82;;
66856;SDS011;53766;50.280;19.160;2022-09-20T16:31:28;1.38;;;1.10;;
66856;SDS011;53766;50.280;19.160;2022-09-20T16:34:02;1.83;;;1.20;;
66856;SDS011;53766;50.280;19.160;2022-09-20T16:36:31;1.33;;;1.10;;
66856;SDS011;53766;50.280;19.160;2022-09-20T16:38:58;1.77;;;1.20;;
66856;SDS011;53766;50.280;19.160;2022-09-20T16:41:27;1.20;;;1.00;;
66856;SDS011;53766;50.280;19.160;2022-09-20T16:43:55;1.42;;;0.90;;
66856;SDS011;53766;50.280;19.160;2022-09-20T16:46:23;1.73;;;1.08;;
66856;SDS011;53766;50.280;19.160;2022-09-20T16:48:54;1.50;;;1.20;;
66856;SDS011;53766;50.280;19.160;2022-09-20T16:51:23;1.40;;;1.00;;
66856;SDS011;53766;50.280;19.160;2022-09-20T16:53:52;1.63;;;1.10;;
66856;SDS011;53766;50.280;19.160;2022-09-20T16:56:22;1.40;;;1.10;;
66856;SDS011;53766;50.280;19.160;2022-09-20T16:58:55;1.35;;;1.00;;
66856;SDS011;53766;50.280;19.160;2022-09-20T17:01:24;1.38;;;1.10;;
66856;SDS011;53766;50.280;19.160;2022-09-20T17:03:52;1.52;;;1.20;;
66856;SDS011;53766;50.280;19.160;2022-09-20T17:06:20;1.85;;;1.25;;
66856;SDS011;53766;50.280;19.160;2022-09-20T17:08:50;1.75;;;1.20;;
66856;SDS011;53766;50.280;19.160;2022-09-20T17:11:26;2.58;;;1.70;;
66856;SDS011;53766;50.280;19.160;2022-09-20T17:13:56;1.77;;;1.25;;
66856;SDS011;53766;50.280;19.160;2022-09-20T17:16:25;2.30;;;1.40;;
66856;SDS011;53766;50.280;19.160;2022-09-20T17:18:58;1.73;;;1.23;;
66856;SDS011;53766;50.280;19.160;2022-09-20T17:21:28;1.65;;;1.10;;
66856;SDS011;53766;50.280;19.160;2022-09-20T17:23:57;1.98;;;1.40;;
66856;SDS011;53766;50.280;19.160;2022-09-20T17:26:27;1.90;;;1.30;;
66856;SDS011;53766;50.280;19.160;2022-09-20T17:29:03;2.05;;;1.20;;
66856;SDS011;53766;50.280;19.160;2022-09-20T17:31:34;1.48;;;1.20;;
66856;SDS011;53766;50.280;19.160;2022-09-20T17:34:04;3.28;;;1.80;;
66856;SDS011;53766;50.280;19.160;2022-09-20T17:36:34;3.33;;;1.38;;
66856;SDS011;53766;50.280;19.160;2022-09-20T17:39:05;1.90;;;1.48;;
66856;SDS011;53766;50.280;19.160;2022-09-20T17:41:38;2.28;;;1.40;;
66856;SDS011;53766;50.280;19.160;2022-09-20T17:44:07;2.53;;;1.55;;
66856;SDS011;53766;50.280;19.160;2022-09-20T17:46:37;2.95;;;1.50;;
66856;SDS011;53766;50.280;19.160;2022-09-20T17:49:12;2.22;;;1.70;;
66856;SDS011;53766;50.280;19.160;2022-09-20T17:51:41;2.10;;;1.50;;
66856;SDS011;53766;50.280;19.160;2022-09-20T17:54:10;1.77;;;1.27;;
66856;SDS011;53766;50.280;19.160;2022-09-20T17:56:42;2.90;;;1.35;;
66856;SDS011;53766;50.280;19.160;2022-09-20T17:59:15;2.47;;;1.42;;
66856;SDS011;53766;50.280;19.160;2022-09-20T18:01:46;3.22;;;1.55;;
66856;SDS011;53766;50.280;19.160;2022-09-20T18:04:15;1.73;;;1.20;;
66856;SDS011;53766;50.280;19.160;2022-09-20T18:06:44;2.67;;;1.60;;
66856;SDS011;53766;50.280;19.160;2022-09-20T18:09:14;1.90;;;1.35;;
66856;SDS011;53766;50.280;19.160;2022-09-20T18:11:47;2.08;;;1.50;;
66856;SDS011;53766;50.280;19.160;2022-09-20T18:14:17;2.03;;;1.40;;
66856;SDS011;53766;50.280;19.160;2022-09-20T18:16:46;2.28;;;1.58;;
66856;SDS011;53766;50.280;19.160;2022-09-20T18:19:13;2.45;;;1.60;;
66856;SDS011;53766;50.280;19.160;2022-09-20T18:21:43;2.20;;;1.50;;
66856;SDS011;53766;50.280;19.160;2022-09-20T18:24:11;2.80;;;1.63;;
66856;SDS011;53766;50.280;19.160;2022-09-20T18:26:39;2.83;;;1.65;;
66856;SDS011;53766;50.280;19.160;2022-09-20T18:29:07;2.03;;;1.42;;
66856;SDS011;53766;50.280;19.160;2022-09-20T18:31:38;2.65;;;1.60;;
66856;SDS011;53766;50.280;19.160;2022-09-20T18:34:15;2.50;;;1.60;;
66856;SDS011;53766;50.280;19.160;2022-09-20T18:36:45;2.47;;;1.58;;
66856;SDS011;53766;50.280;19.160;2022-09-20T18:39:20;2.45;;;1.55;;
66856;SDS011;53766;50.280;19.160;2022-09-20T18:41:49;2.83;;;1.70;;
66856;SDS011;53766;50.280;19.160;2022-09-20T18:44:16;3.50;;;1.70;;
66856;SDS011;53766;50.280;19.160;2022-09-20T18:46:45;1.92;;;1.60;;
66856;SDS011;53766;50.280;19.160;2022-09-20T18:49:13;2.42;;;1.75;;
66856;SDS011;53766;50.280;19.160;2022-09-20T18:51:43;2.88;;;1.80;;
66856;SDS011;53766;50.280;19.160;2022-09-20T18:54:11;2.78;;;1.90;;
66856;SDS011;53766;50.280;19.160;2022-09-20T18:56:39;2.45;;;1.70;;
66856;SDS011;53766;50.280;19.160;2022-09-20T18:59:22;2.55;;;1.70;;
66856;SDS011;53766;50.280;19.160;2022-09-20T19:20:33;2.72;;;2.00;;
66856;SDS011;53766;50.280;19.160;2022-09-20T19:26:04;3.38;;;1.95;;
66856;SDS011;53766;50.280;19.160;2022-09-20T19:28:45;2.78;;;1.90;;
66856;SDS011;53766;50.280;19.160;2022-09-20T19:31:25;2.95;;;1.85;;
66856;SDS011;53766;50.280;19.160;2022-09-20T19:33:55;2.90;;;2.10;;
66856;SDS011;53766;50.280;19.160;2022-09-20T19:36:25;2.47;;;1.90;;
66856;SDS011;53766;50.280;19.160;2022-09-20T19:39:14;2.95;;;2.00;;
66856;SDS011;53766;50.280;19.160;2022-09-20T19:50:28;2.60;;;1.95;;
66856;SDS011;53766;50.280;19.160;2022-09-20T19:53:02;3.88;;;2.15;;
66856;SDS011;53766;50.280;19.160;2022-09-20T19:55:31;4.20;;;2.13;;
66856;SDS011;53766;50.280;19.160;2022-09-20T19:58:02;4.13;;;2.42;;
66856;SDS011;53766;50.280;19.160;2022-09-20T20:00:30;3.25;;;2.20;;
66856;SDS011;53766;50.280;19.160;2022-09-20T20:02:58;3.05;;;1.90;;
66856;SDS011;53766;50.280;19.160;2022-09-20T20:05:26;2.90;;;2.00;;
66856;SDS011;53766;50.280;19.160;2022-09-20T20:08:04;3.40;;;1.98;;
66856;SDS011;53766;50.280;19.160;2022-09-20T20:16:10;3.35;;;2.28;;
66856;SDS011;53766;50.280;19.160;2022-09-20T20:26:51;4.15;;;2.10;;
66856;SDS011;53766;50.280;19.160;2022-09-20T20:29:19;2.97;;;2.00;;
66856;SDS011;53766;50.280;19.160;2022-09-20T20:31:46;3.47;;;2.30;;
66856;SDS011;53766;50.280;19.160;2022-09-20T20:34:14;3.00;;;1.85;;
66856;SDS011;53766;50.280;19.160;2022-09-20T20:36:46;3.28;;;2.15;;
66856;SDS011;53766;50.280;19.160;2022-09-20T20:39:14;3.50;;;2.40;;
66856;SDS011;53766;50.280;19.160;2022-09-20T20:41:41;4.03;;;2.50;;
66856;SDS011;53766;50.280;19.160;2022-09-20T20:44:09;3.65;;;2.40;;
66856;SDS011;53766;50.280;19.160;2022-09-20T20:46:38;3.15;;;2.38;;
66856;SDS011;53766;50.280;19.160;2022-09-20T20:49:05;3.60;;;2.42;;
66856;SDS011;53766;50.280;19.160;2022-09-20T20:51:34;3.20;;;2.30;;
66856;SDS011;53766;50.280;19.160;2022-09-20T20:54:02;3.67;;;2.35;;
66856;SDS011;53766;50.280;19.160;2022-09-20T20:56:30;3.28;;;2.05;;
66856;SDS011;53766;50.280;19.160;2022-09-20T20:58:57;4.50;;;2.50;;
66856;SDS011;53766;50.280;19.160;2022-09-20T21:01:29;3.40;;;2.13;;
66856;SDS011;53766;50.280;19.160;2022-09-20T21:03:57;3.92;;;2.42;;
66856;SDS011;53766;50.280;19.160;2022-09-20T21:06:26;3.63;;;2.50;;
66856;SDS011;53766;50.280;19.160;2022-09-20T21:08:56;2.92;;;2.13;;
66856;SDS011;53766;50.280;19.160;2022-09-20T21:11:30;3.53;;;2.40;;
66856;SDS011;53766;50.280;19.160;2022-09-20T21:14:01;3.95;;;2.33;;
66856;SDS011;53766;50.280;19.160;2022-09-20T21:16:33;3.40;;;2.25;;
66856;SDS011;53766;50.280;19.160;2022-09-20T21:19:03;3.67;;;2.38;;
66856;SDS011;53766;50.280;19.160;2022-09-20T21:21:32;3.65;;;2.30;;